Time;durP1;ratioP1;P1;durP2;ratioP2;P2;SDS_P1;SDS_P2;PMS_P1;PMS_P2;Temp;Humidity;BMP_temperature;BMP_pressure;BME280_temperature;BME280_humidity;BME280_pressure;Samples;Min_cycle;Max_cycle;Signal;HPM_P1;HPM_P2
2023/06/29 00:01:02;;;;;;;7.20;2.97;;;16.90;99.90;;;;;;4957019;28;20030;-65
2023/06/29 00:03:28;;;;;;;4.25;2.85;;;16.90;99.90;;;;;;4961030;28;20483;-66
2023/06/29 00:05:55;;;;;;;3.42;3.10;;;16.90;99.90;;;;;;4957656;28;20034;-66
2023/06/29 00:08:25;;;;;;;4.95;3.05;;;16.90;99.90;;;;;;4958040;28;20035;-66
2023/06/29 00:10:52;;;;;;;3.45;2.70;;;16.90;99.90;;;;;;4959110;28;20031;-66
2023/06/29 00:13:19;;;;;;;3.25;2.85;;;16.80;99.90;;;;;;4957833;28;20090;-65
2023/06/29 00:15:46;;;;;;;3.30;2.88;;;16.80;99.90;;;;;;4937111;28;20180;-65
2023/06/29 00:18:13;;;;;;;3.70;3.05;;;16.80;99.90;;;;;;4955421;28;20432;-65
2023/06/29 00:20:40;;;;;;;5.38;3.20;;;16.80;99.90;;;;;;4963242;28;20730;-66
2023/06/29 00:23:06;;;;;;;5.85;3.13;;;16.80;99.90;;;;;;4963184;28;20155;-66
2023/06/29 00:25:32;;;;;;;3.88;2.67;;;16.80;99.90;;;;;;4960939;28;20123;-65
2023/06/29 00:27:58;;;;;;;4.82;3.20;;;16.80;99.90;;;;;;4960536;28;20487;-66
2023/06/29 00:30:25;;;;;;;7.60;3.20;;;16.80;99.90;;;;;;4944469;28;20035;-65
2023/06/29 00:32:51;;;;;;;3.75;2.70;;;16.70;99.90;;;;;;4937995;28;20420;-66
2023/06/29 00:35:17;;;;;;;6.13;3.13;;;16.70;99.90;;;;;;4944174;28;20031;-66
2023/06/29 00:37:42;;;;;;;3.88;3.08;;;16.70;99.90;;;;;;4934165;28;20611;-66
2023/06/29 00:40:09;;;;;;;4.28;3.00;;;16.70;99.90;;;;;;4942772;28;20085;-65
2023/06/29 00:42:36;;;;;;;6.75;2.90;;;16.70;99.90;;;;;;4959628;28;20561;-65
2023/06/29 00:45:04;;;;;;;6.88;3.38;;;16.70;99.90;;;;;;4960938;28;20035;-65
2023/06/29 00:47:31;;;;;;;3.72;3.15;;;16.60;99.90;;;;;;4944197;28;20031;-65
2023/06/29 00:49:57;;;;;;;6.28;3.53;;;16.60;99.90;;;;;;4958426;28;20110;-65
2023/06/29 00:52:23;;;;;;;8.43;3.60;;;16.60;99.90;;;;;;4954274;28;20069;-64
2023/06/29 00:54:55;;;;;;;4.30;3.25;;;16.60;99.90;;;;;;4939373;28;20023;-65
2023/06/29 00:57:20;;;;;;;4.60;3.35;;;16.60;99.90;;;;;;4939836;29;20042;-64
2023/06/29 00:59:47;;;;;;;4.63;3.20;;;16.50;99.90;;;;;;4962003;28;20031;-65
2023/06/29 01:02:15;;;;;;;4.97;3.65;;;16.60;99.90;;;;;;4960572;28;20578;-65
2023/06/29 01:04:45;;;;;;;6.22;3.17;;;16.50;99.90;;;;;;4958043;28;20023;-65
2023/06/29 01:07:22;;;;;;;4.47;3.60;;;16.50;99.90;;;;;;4957725;28;20027;-65
2023/06/29 01:09:49;;;;;;;4.55;3.22;;;16.50;99.90;;;;;;4956725;28;20114;-64
2023/06/29 01:12:16;;;;;;;4.63;3.00;;;16.50;99.90;;;;;;4952121;28;20047;-64
2023/06/29 01:14:44;;;;;;;4.82;3.08;;;16.50;99.90;;;;;;4944970;28;20396;-65
2023/06/29 01:17:13;;;;;;;5.65;2.97;;;16.50;99.90;;;;;;4962179;28;20034;-65
2023/06/29 01:19:42;;;;;;;7.28;2.92;;;16.40;99.90;;;;;;4955063;28;20030;-65
2023/06/29 01:22:15;;;;;;;4.63;3.72;;;16.40;99.90;;;;;;4953842;28;20027;-65
2023/06/29 01:24:41;;;;;;;9.65;3.40;;;16.30;99.90;;;;;;4955797;28;20073;-65
2023/06/29 01:27:08;;;;;;;6.05;4.05;;;16.30;99.90;;;;;;4944111;28;20031;-64
2023/06/29 01:29:34;;;;;;;5.55;3.40;;;16.20;99.90;;;;;;4957759;28;20118;-64
2023/06/29 01:32:03;;;;;;;5.68;3.22;;;16.20;99.90;;;;;;4937106;28;20034;-64
2023/06/29 01:34:31;;;;;;;4.47;3.22;;;16.10;99.90;;;;;;4961433;28;20049;-65
2023/06/29 01:37:21;;;;;;;3.83;3.13;;;16.00;99.90;;;;;;4959609;28;20062;-64
2023/06/29 01:39:51;;;;;;;4.60;3.20;;;16.00;99.90;;;;;;4959608;28;20406;-64
2023/06/29 01:42:19;;;;;;;5.30;2.97;;;16.00;99.90;;;;;;4952874;28;20053;-64
2023/06/29 01:44:45;;;;;;;3.72;2.92;;;16.00;99.90;;;;;;4942714;28;20030;-64
2023/06/29 01:47:12;;;;;;;3.75;3.08;;;16.00;99.90;;;;;;4947742;28;20051;-64
2023/06/29 01:49:38;;;;;;;3.88;3.22;;;15.90;99.90;;;;;;4965278;28;20114;-64
2023/06/29 01:52:05;;;;;;;3.88;3.17;;;15.90;99.90;;;;;;4946141;28;20034;-65
2023/06/29 01:54:31;;;;;;;5.20;3.22;;;15.90;99.90;;;;;;4962333;28;20513;-64
2023/06/29 01:56:57;;;;;;;5.35;3.13;;;15.80;99.90;;;;;;4943456;28;20058;-64
2023/06/29 01:59:23;;;;;;;6.47;3.95;;;15.80;99.90;;;;;;4946969;28;20175;-65
2023/06/29 02:01:49;;;;;;;6.07;3.95;;;15.90;99.90;;;;;;4943918;28;20127;-64
2023/06/29 02:04:15;;;;;;;6.95;4.40;;;15.90;99.90;;;;;;4956460;28;20184;-64
2023/06/29 02:06:43;;;;;;;4.63;3.90;;;15.90;99.90;;;;;;4944548;28;20035;-64
2023/06/29 02:09:08;;;;;;;5.72;4.05;;;15.90;99.90;;;;;;4965509;28;20038;-64
2023/06/29 02:11:37;;;;;;;6.07;4.50;;;15.90;99.90;;;;;;4957273;28;20062;-64
2023/06/29 02:14:03;;;;;;;5.03;4.15;;;15.90;99.90;;;;;;4942726;29;20039;-65
2023/06/29 02:16:29;;;;;;;7.15;4.22;;;15.90;99.90;;;;;;4942368;28;20035;-65
2023/06/29 02:18:55;;;;;;;6.18;4.13;;;15.90;99.90;;;;;;4949025;28;20118;-65
2023/06/29 02:21:20;;;;;;;6.43;4.32;;;15.90;99.90;;;;;;4946371;29;20094;-65
2023/06/29 02:23:46;;;;;;;8.10;4.13;;;15.90;99.90;;;;;;4942218;28;20129;-65
2023/06/29 02:26:12;;;;;;;4.50;4.07;;;16.00;99.90;;;;;;4953564;28;20054;-65
2023/06/29 02:28:38;;;;;;;5.85;3.80;;;16.00;99.90;;;;;;4947198;28;20035;-65
2023/06/29 02:31:03;;;;;;;3.88;3.50;;;16.00;99.90;;;;;;4964362;28;20082;-65
2023/06/29 02:33:30;;;;;;;8.75;4.80;;;16.00;99.90;;;;;;4946988;28;20127;-65
2023/06/29 02:35:56;;;;;;;6.63;4.13;;;16.00;99.90;;;;;;4961506;28;20035;-64
2023/06/29 02:38:22;;;;;;;6.00;4.45;;;16.00;99.90;;;;;;4945806;29;20039;-65
2023/06/29 02:40:48;;;;;;;4.47;3.92;;;16.00;99.90;;;;;;4958901;28;20037;-65
2023/06/29 02:43:15;;;;;;;8.32;4.38;;;16.00;99.90;;;;;;4948582;28;20034;-66
2023/06/29 02:45:41;;;;;;;7.28;4.63;;;16.10;99.90;;;;;;4956140;28;20041;-65
2023/06/29 02:48:08;;;;;;;5.03;3.65;;;16.10;99.90;;;;;;4942694;29;20027;-65
2023/06/29 02:50:34;;;;;;;4.88;4.07;;;16.10;99.90;;;;;;4942646;28;20034;-65
2023/06/29 02:53:00;;;;;;;5.28;4.15;;;16.10;99.90;;;;;;4940152;28;20150;-64
2023/06/29 02:55:26;;;;;;;5.22;3.50;;;16.10;99.90;;;;;;4962326;28;20041;-65
2023/06/29 02:57:52;;;;;;;4.85;4.03;;;16.10;99.90;;;;;;4956390;28;20034;-65
2023/06/29 03:00:18;;;;;;;5.00;3.95;;;16.10;99.90;;;;;;4948597;28;20065;-65
2023/06/29 03:02:44;;;;;;;6.35;3.88;;;16.10;99.90;;;;;;4956197;28;20034;-65
2023/06/29 03:05:10;;;;;;;6.07;3.75;;;16.10;99.90;;;;;;4943025;29;20023;-65
2023/06/29 03:07:35;;;;;;;4.90;4.25;;;16.20;99.90;;;;;;4962351;28;20039;-66
2023/06/29 03:10:01;;;;;;;4.50;3.75;;;16.20;99.90;;;;;;4961586;28;20927;-65
2023/06/29 03:12:27;;;;;;;4.05;3.50;;;16.30;99.90;;;;;;4957220;28;20065;-65
2023/06/29 03:14:53;;;;;;;5.93;4.35;;;16.30;99.90;;;;;;4959527;28;20869;-65
2023/06/29 03:17:19;;;;;;;5.20;3.97;;;16.40;99.90;;;;;;4956916;28;20038;-65
2023/06/29 03:19:45;;;;;;;5.32;3.63;;;16.50;99.90;;;;;;4957312;28;20027;-65
2023/06/29 03:22:11;;;;;;;4.50;4.10;;;16.60;99.90;;;;;;4960827;28;20395;-65
2023/06/29 03:24:36;;;;;;;4.93;3.70;;;16.70;99.90;;;;;;4960944;28;20082;-65
2023/06/29 03:27:04;;;;;;;5.85;3.60;;;16.70;99.90;;;;;;4961566;28;20689;-66
2023/06/29 03:29:30;;;;;;;3.95;3.47;;;16.80;99.90;;;;;;4960059;28;20039;-65
2023/06/29 03:31:56;;;;;;;5.70;3.95;;;16.90;99.90;;;;;;4958271;28;20031;-66
2023/06/29 03:34:22;;;;;;;5.70;3.88;;;16.90;99.90;;;;;;4954660;28;20031;-66
2023/06/29 03:36:48;;;;;;;5.15;3.40;;;17.00;99.90;;;;;;4964651;28;20038;-66
2023/06/29 03:39:14;;;;;;;4.55;3.42;;;17.00;99.90;;;;;;4963914;28;20031;-65
2023/06/29 03:41:39;;;;;;;6.07;3.60;;;17.10;99.90;;;;;;4959500;28;20474;-66
2023/06/29 03:44:05;;;;;;;3.45;3.15;;;17.10;99.90;;;;;;4957484;28;20031;-65
2023/06/29 03:46:31;;;;;;;4.20;3.50;;;17.20;99.90;;;;;;4957867;28;20058;-66
2023/06/29 03:48:57;;;;;;;3.67;3.17;;;17.30;99.90;;;;;;4958395;28;20062;-65
2023/06/29 03:51:23;;;;;;;5.18;3.38;;;17.30;99.90;;;;;;4954895;28;20027;-66
2023/06/29 03:53:48;;;;;;;3.75;3.30;;;17.30;99.90;;;;;;4957181;28;20030;-65
2023/06/29 03:56:14;;;;;;;4.40;3.22;;;17.40;99.90;;;;;;4961503;28;20037;-65
2023/06/29 03:58:40;;;;;;;4.05;3.45;;;17.40;99.90;;;;;;4961269;28;20035;-66
2023/06/29 04:01:06;;;;;;;4.03;3.15;;;17.40;99.90;;;;;;4961583;28;20035;-66
2023/06/29 04:03:32;;;;;;;5.88;3.10;;;17.50;99.90;;;;;;4958013;28;20138;-65
2023/06/29 04:05:57;;;;;;;5.22;3.40;;;17.50;99.90;;;;;;4959277;28;20394;-66
2023/06/29 04:08:23;;;;;;;5.50;3.75;;;17.50;99.90;;;;;;4953610;28;20483;-65
2023/06/29 04:10:49;;;;;;;5.32;3.40;;;17.60;99.90;;;;;;4960744;28;20030;-66
2023/06/29 04:13:15;;;;;;;3.53;3.08;;;17.60;99.90;;;;;;4963906;28;20130;-66
2023/06/29 04:15:41;;;;;;;5.30;3.33;;;17.70;99.90;;;;;;4961348;28;20598;-65
2023/06/29 04:18:07;;;;;;;4.07;3.05;;;17.80;99.90;;;;;;4961122;28;20042;-66
2023/06/29 04:20:33;;;;;;;3.92;3.30;;;17.80;99.90;;;;;;4942160;29;20039;-65
2023/06/29 04:22:58;;;;;;;3.50;3.20;;;17.90;99.90;;;;;;4937409;29;20035;-65
2023/06/29 04:25:24;;;;;;;3.20;2.90;;;17.90;99.90;;;;;;4954519;28;20034;-65
2023/06/29 04:27:50;;;;;;;4.38;3.33;;;18.00;99.90;;;;;;4955139;28;20054;-65
2023/06/29 04:30:17;;;;;;;4.13;3.30;;;18.00;99.90;;;;;;4963948;28;20043;-65
2023/06/29 04:32:44;;;;;;;5.35;3.17;;;18.10;99.90;;;;;;4962013;28;20074;-65
2023/06/29 04:35:10;;;;;;;3.33;3.00;;;18.10;99.90;;;;;;4959906;28;20037;-65
2023/06/29 04:37:40;;;;;;;7.22;3.15;;;18.20;99.90;;;;;;4959006;28;20039;-65
2023/06/29 04:40:09;;;;;;;5.63;3.20;;;18.20;99.90;;;;;;4958767;28;20185;-65
2023/06/29 04:42:43;;;;;;;5.35;3.60;;;18.30;99.90;;;;;;4956347;28;20358;-65
2023/06/29 04:45:12;;;;;;;4.75;3.47;;;18.30;99.90;;;;;;4954965;28;20027;-65
2023/06/29 04:47:40;;;;;;;7.38;3.70;;;18.40;99.90;;;;;;4962392;28;20027;-65
2023/06/29 04:50:08;;;;;;;4.88;4.05;;;18.40;99.90;;;;;;4962517;28;20695;-65
2023/06/29 04:52:36;;;;;;;4.28;3.30;;;18.50;99.90;;;;;;4959881;28;20039;-65
2023/06/29 04:55:04;;;;;;;4.13;3.38;;;18.50;99.90;;;;;;4962186;28;20030;-64
2023/06/29 04:57:30;;;;;;;4.70;3.55;;;18.60;99.90;;;;;;4958755;28;20125;-65
2023/06/29 04:59:56;;;;;;;5.38;3.40;;;18.60;99.90;;;;;;4957718;28;20039;-65
2023/06/29 05:02:22;;;;;;;7.20;3.95;;;18.70;99.90;;;;;;4953446;28;20083;-64
2023/06/29 05:04:49;;;;;;;5.05;3.38;;;18.70;99.90;;;;;;4963487;28;20406;-65
2023/06/29 05:07:15;;;;;;;4.72;3.67;;;18.80;99.90;;;;;;4959629;28;20119;-65
2023/06/29 05:09:41;;;;;;;4.53;3.40;;;18.80;99.90;;;;;;4960227;28;20043;-65
2023/06/29 05:12:08;;;;;;;4.10;3.17;;;18.90;99.90;;;;;;4960264;28;20023;-65
2023/06/29 05:14:33;;;;;;;5.28;3.47;;;19.00;99.90;;;;;;4957278;28;20031;-65
2023/06/29 05:16:59;;;;;;;5.10;3.63;;;19.00;99.90;;;;;;4958427;28;20581;-65
2023/06/29 05:19:25;;;;;;;6.38;3.40;;;19.10;99.90;;;;;;4961120;28;20209;-65
2023/06/29 05:21:51;;;;;;;3.85;3.42;;;19.20;99.90;;;;;;4963970;28;20034;-64
2023/06/29 05:24:17;;;;;;;6.85;3.22;;;19.30;99.90;;;;;;4965936;28;20038;-64
2023/06/29 05:26:43;;;;;;;6.25;3.40;;;19.40;99.90;;;;;;4965219;28;20588;-65
2023/06/29 05:29:08;;;;;;;5.00;3.35;;;19.50;99.90;;;;;;4963819;28;20033;-64
2023/06/29 05:31:34;;;;;;;4.82;3.50;;;19.50;99.90;;;;;;4963672;28;20170;-65
2023/06/29 05:34:00;;;;;;;6.05;3.00;;;19.60;99.90;;;;;;4964948;28;20065;-65
2023/06/29 05:36:26;;;;;;;4.47;3.03;;;19.60;99.90;;;;;;4957756;28;20035;-65
2023/06/29 05:38:52;;;;;;;5.82;3.40;;;19.70;99.90;;;;;;4949851;28;20041;-65
2023/06/29 05:41:18;;;;;;;6.20;3.70;;;19.70;99.90;;;;;;4966358;28;20587;-65
2023/06/29 05:43:44;;;;;;;5.72;3.38;;;19.70;99.90;;;;;;4964488;28;20035;-64
2023/06/29 05:46:10;;;;;;;4.20;3.20;;;19.70;99.90;;;;;;4965264;28;20033;-65
2023/06/29 05:48:36;;;;;;;5.72;3.08;;;19.70;99.90;;;;;;4961181;28;20063;-65
2023/06/29 05:51:01;;;;;;;4.03;2.80;;;19.70;99.90;;;;;;4964786;28;20027;-66
2023/06/29 05:53:27;;;;;;;3.38;2.90;;;19.80;99.90;;;;;;4957854;28;20116;-65
2023/06/29 05:55:53;;;;;;;3.95;3.53;;;19.80;99.90;;;;;;4949631;28;20738;-65
2023/06/29 05:58:18;;;;;;;5.95;2.80;;;19.90;99.90;;;;;;4954740;28;20038;-65
2023/06/29 06:00:45;;;;;;;5.50;3.15;;;19.90;99.90;;;;;;4963638;28;20576;-66
2023/06/29 06:03:11;;;;;;;4.03;3.05;;;19.90;99.90;;;;;;4962147;28;20767;-65
2023/06/29 06:05:37;;;;;;;6.45;2.83;;;20.00;99.90;;;;;;4962181;28;20513;-65
2023/06/29 06:08:03;;;;;;;5.03;3.13;;;20.00;99.90;;;;;;4962524;28;20122;-65
2023/06/29 06:10:28;;;;;;;5.47;3.08;;;20.00;99.90;;;;;;4958275;28;20039;-65
2023/06/29 06:12:54;;;;;;;3.85;2.75;;;20.10;99.90;;;;;;4959905;28;20035;-66
2023/06/29 06:15:20;;;;;;;4.25;2.88;;;20.00;99.90;;;;;;4945499;28;20073;-65
2023/06/29 06:17:45;;;;;;;5.15;2.85;;;20.10;99.90;;;;;;4964988;28;20043;-65
2023/06/29 06:20:12;;;;;;;6.40;2.67;;;20.10;99.90;;;;;;4959840;28;20045;-66
2023/06/29 06:22:38;;;;;;;5.05;2.90;;;20.10;99.90;;;;;;4948241;28;20046;-65
2023/06/29 06:25:04;;;;;;;4.82;3.28;;;20.10;99.90;;;;;;4962228;28;20031;-65
2023/06/29 06:27:30;;;;;;;5.25;3.30;;;20.20;99.90;;;;;;4958458;28;20039;-65
2023/06/29 06:29:56;;;;;;;3.80;2.75;;;20.20;99.90;;;;;;4962199;28;20034;-65
2023/06/29 06:32:24;;;;;;;3.42;2.80;;;20.20;99.90;;;;;;4950727;28;20079;-65
2023/06/29 06:34:51;;;;;;;7.00;3.30;;;20.20;99.90;;;;;;4957988;28;20030;-65
2023/06/29 06:37:17;;;;;;;3.53;2.83;;;20.30;99.90;;;;;;4964081;28;20042;-65
2023/06/29 06:39:43;;;;;;;3.67;3.00;;;20.30;99.90;;;;;;4962235;28;20065;-65
2023/06/29 06:42:09;;;;;;;5.18;2.78;;;20.30;99.90;;;;;;4963995;28;20384;-66
2023/06/29 06:44:48;;;;;;;4.28;2.88;;;20.30;99.90;;;;;;4959043;28;20035;-65
2023/06/29 06:47:13;;;;;;;4.10;2.90;;;20.30;99.90;;;;;;4957714;28;20102;-66
2023/06/29 06:49:40;;;;;;;4.78;2.78;;;20.30;99.90;;;;;;4957329;28;20043;-65
2023/06/29 06:52:06;;;;;;;4.38;2.92;;;20.30;99.90;;;;;;4945738;28;20462;-66
2023/06/29 06:54:32;;;;;;;3.25;2.88;;;20.40;99.90;;;;;;4931973;28;20026;-66
2023/06/29 06:56:57;;;;;;;3.58;2.95;;;20.30;99.90;;;;;;4960138;28;20033;-66
2023/06/29 06:59:23;;;;;;;3.55;2.83;;;20.40;99.90;;;;;;4959738;28;20034;-65
2023/06/29 07:01:49;;;;;;;4.35;2.90;;;20.40;99.90;;;;;;4961144;28;20749;-66
2023/06/29 07:04:15;;;;;;;5.00;3.20;;;20.40;99.90;;;;;;4957868;28;20388;-66
2023/06/29 07:06:40;;;;;;;4.97;2.72;;;20.50;99.90;;;;;;4957758;28;20452;-66
2023/06/29 07:09:07;;;;;;;4.50;3.00;;;20.50;99.90;;;;;;4961955;28;20103;-65
2023/06/29 07:11:34;;;;;;;5.72;3.50;;;20.50;99.90;;;;;;4963362;28;20988;-65
2023/06/29 07:14:00;;;;;;;4.35;3.38;;;20.60;99.90;;;;;;4962763;28;20031;-65
2023/06/29 07:16:25;;;;;;;5.97;3.15;;;20.60;99.90;;;;;;4955627;28;20227;-65
2023/06/29 07:19:04;;;;;;;6.82;3.50;;;20.70;99.90;;;;;;4960047;28;20035;-65
2023/06/29 07:21:30;;;;;;;4.55;3.20;;;20.70;99.90;;;;;;4942552;28;20054;-65
2023/06/29 07:23:56;;;;;;;5.85;3.15;;;20.70;99.90;;;;;;4958269;28;20031;-65
2023/06/29 07:26:22;;;;;;;5.93;3.30;;;20.80;99.90;;;;;;4965209;28;20626;-65
2023/06/29 07:28:48;;;;;;;4.82;2.50;;;20.80;99.90;;;;;;4962618;28;20026;-65
2023/06/29 07:31:14;;;;;;;4.93;3.13;;;20.90;99.90;;;;;;4962917;28;20167;-64
2023/06/29 07:33:41;;;;;;;2.63;2.42;;;20.90;99.90;;;;;;4960642;28;20039;-64
2023/06/29 07:36:08;;;;;;;4.78;2.22;;;21.00;99.90;;;;;;4960452;28;20030;-64
2023/06/29 07:38:34;;;;;;;4.10;2.90;;;21.10;99.90;;;;;;4957454;28;20674;-64
2023/06/29 07:41:03;;;;;;;3.25;2.80;;;21.20;99.90;;;;;;4957985;28;20050;-64
2023/06/29 07:43:28;;;;;;;5.72;3.00;;;21.20;99.90;;;;;;4957466;28;20054;-64
2023/06/29 07:45:55;;;;;;;4.68;3.00;;;21.30;99.90;;;;;;4963230;28;20061;-65
2023/06/29 07:48:21;;;;;;;4.20;2.38;;;21.30;99.90;;;;;;4961848;28;20509;-64
2023/06/29 07:50:47;;;;;;;5.60;2.75;;;21.40;99.90;;;;;;4961143;28;20074;-65
2023/06/29 07:53:12;;;;;;;4.18;2.40;;;21.40;99.90;;;;;;4959363;28;20030;-64
2023/06/29 07:55:38;;;;;;;5.05;2.40;;;21.40;99.90;;;;;;4960478;28;20069;-65
2023/06/29 07:58:04;;;;;;;3.47;2.08;;;21.50;99.90;;;;;;4957152;28;20479;-65
2023/06/29 08:00:30;;;;;;;3.45;2.30;;;21.60;99.90;;;;;;4954879;28;20035;-65
2023/06/29 08:02:55;;;;;;;4.80;2.60;;;21.70;99.90;;;;;;4963600;28;20153;-65
2023/06/29 08:05:22;;;;;;;3.85;1.92;;;21.80;99.90;;;;;;4962441;28;20034;-64
2023/06/29 08:07:49;;;;;;;2.92;2.05;;;21.80;99.90;;;;;;4961495;28;20018;-65
2023/06/29 08:10:15;;;;;;;4.00;2.17;;;21.80;99.90;;;;;;4959757;28;20047;-65
2023/06/29 08:12:41;;;;;;;3.67;2.17;;;21.80;99.90;;;;;;4958519;28;20035;-65
2023/06/29 08:15:07;;;;;;;5.75;2.30;;;21.90;99.90;;;;;;4945736;28;20479;-66
2023/06/29 08:17:33;;;;;;;4.72;2.63;;;21.90;99.90;;;;;;4941491;28;20035;-66
2023/06/29 08:19:59;;;;;;;2.92;2.30;;;22.00;99.90;;;;;;4952797;28;20031;-67
2023/06/29 08:22:26;;;;;;;3.65;2.13;;;22.00;99.90;;;;;;4955424;28;20046;-66
2023/06/29 08:24:52;;;;;;;5.07;2.63;;;22.10;99.90;;;;;;4961503;28;20031;-66
2023/06/29 08:27:19;;;;;;;8.40;4.75;;;22.30;99.90;;;;;;4959258;28;20029;-66
2023/06/29 08:29:45;;;;;;;29.10;19.05;;;22.50;99.90;;;;;;4960977;28;20045;-65
2023/06/29 08:32:11;;;;;;;11.63;7.93;;;22.70;98.90;;;;;;4955308;28;20399;-66
2023/06/29 08:34:36;;;;;;;20.45;13.15;;;22.80;98.30;;;;;;4959358;28;20499;-66
2023/06/29 08:37:02;;;;;;;7.57;5.05;;;22.90;97.30;;;;;;4960850;28;20557;-65
2023/06/29 08:39:28;;;;;;;17.80;9.18;;;22.90;97.40;;;;;;4961873;28;20080;-66
2023/06/29 08:41:55;;;;;;;10.50;6.90;;;22.90;97.30;;;;;;4962493;28;20031;-65
2023/06/29 08:44:22;;;;;;;7.88;5.38;;;22.90;96.90;;;;;;4959661;28;20486;-66
2023/06/29 08:46:48;;;;;;;10.18;6.00;;;23.00;96.90;;;;;;4961948;28;20463;-65
2023/06/29 08:49:15;;;;;;;14.00;9.73;;;23.10;97.00;;;;;;4956963;28;20037;-66
2023/06/29 08:51:46;;;;;;;8.02;4.85;;;23.10;97.30;;;;;;4956480;28;20045;-64
2023/06/29 08:54:12;;;;;;;7.78;5.78;;;23.30;97.30;;;;;;4952688;28;20062;-64
2023/06/29 08:56:38;;;;;;;7.05;4.57;;;23.40;96.30;;;;;;4963317;28;20038;-64
2023/06/29 08:59:04;;;;;;;7.53;5.03;;;23.40;95.90;;;;;;4956442;28;20380;-63
2023/06/29 09:01:31;;;;;;;7.20;4.80;;;23.40;95.40;;;;;;4937451;28;20042;-64
2023/06/29 09:03:57;;;;;;;4.47;2.60;;;23.40;95.60;;;;;;4957174;28;20666;-65
2023/06/29 09:06:23;;;;;;;3.75;2.85;;;23.30;95.50;;;;;;4958085;28;20062;-65
2023/06/29 09:08:49;;;;;;;5.97;3.85;;;23.30;95.80;;;;;;4957789;28;20034;-65
2023/06/29 09:11:15;;;;;;;4.10;2.53;;;23.30;96.30;;;;;;4953831;28;20070;-65
2023/06/29 09:13:41;;;;;;;3.55;2.17;;;23.40;94.70;;;;;;4962331;28;20069;-65
2023/06/29 09:16:08;;;;;;;4.50;2.58;;;23.40;94.50;;;;;;4962486;28;20046;-65
2023/06/29 09:18:34;;;;;;;4.22;3.22;;;23.40;94.40;;;;;;4944176;28;20042;-65
2023/06/29 09:21:00;;;;;;;6.00;4.28;;;23.30;96.50;;;;;;4956918;28;20039;-65
2023/06/29 09:23:28;;;;;;;5.65;3.13;;;23.30;95.80;;;;;;4960956;28;20142;-65
2023/06/29 09:25:57;;;;;;;5.38;2.90;;;23.50;94.20;;;;;;4958538;28;20780;-65
2023/06/29 09:28:24;;;;;;;4.22;2.53;;;23.50;95.00;;;;;;4959870;28;20037;-68
2023/06/29 09:30:49;;;;;;;4.60;2.70;;;23.80;96.10;;;;;;4957563;28;20487;-65
2023/06/29 09:33:16;;;;;;;3.22;2.08;;;24.00;94.50;;;;;;4960934;28;20050;-65
2023/06/29 09:35:50;;;;;;;2.85;2.47;;;24.20;92.90;;;;;;4958951;28;20062;-65
2023/06/29 09:38:16;;;;;;;2.33;2.13;;;24.30;93.20;;;;;;4958848;28;20041;-65
2023/06/29 09:41:02;;;;;;;6.25;4.38;;;24.50;93.00;;;;;;4958753;28;20031;-65
2023/06/29 09:43:30;;;;;;;5.45;2.92;;;24.70;92.20;;;;;;4954430;28;20480;-65
2023/06/29 09:46:02;;;;;;;5.50;3.40;;;24.80;92.30;;;;;;4945895;28;20050;-65
2023/06/29 09:48:28;;;;;;;4.95;3.08;;;25.10;91.00;;;;;;4960098;28;20034;-64
2023/06/29 09:50:54;;;;;;;4.35;3.47;;;25.20;90.30;;;;;;4959544;28;20019;-64
2023/06/29 09:53:32;;;;;;;5.70;2.50;;;25.20;88.50;;;;;;4960087;28;20391;-63
2023/06/29 09:55:59;;;;;;;4.30;2.20;;;25.10;89.70;;;;;;4959228;28;20364;-64
2023/06/29 09:58:30;;;;;;;2.50;2.30;;;25.10;88.90;;;;;;4958443;28;20821;-65
2023/06/29 10:00:59;;;;;;;2.63;2.17;;;25.10;88.50;;;;;;4962618;28;20038;-65
2023/06/29 10:03:31;;;;;;;3.95;2.20;;;25.00;87.70;;;;;;4960770;28;20078;-64
2023/06/29 10:06:08;;;;;;;3.17;1.90;;;25.00;89.60;;;;;;4961016;28;20030;-64
2023/06/29 10:08:36;;;;;;;2.85;2.63;;;25.00;91.00;;;;;;4963710;28;20038;-64
2023/06/29 10:11:03;;;;;;;4.82;2.70;;;25.20;90.70;;;;;;4964785;28;20030;-64
2023/06/29 10:13:31;;;;;;;4.38;2.30;;;25.40;90.00;;;;;;4945610;28;20046;-65
2023/06/29 10:16:00;;;;;;;4.50;2.33;;;25.50;88.10;;;;;;4961803;28;20110;-64
2023/06/29 10:18:38;;;;;;;2.67;2.20;;;25.60;90.10;;;;;;4958500;28;20065;-64
2023/06/29 10:21:04;;;;;;;3.17;2.30;;;25.70;90.10;;;;;;4960623;28;20038;-64
2023/06/29 10:23:31;;;;;;;3.33;2.42;;;25.80;87.70;;;;;;4959923;28;20034;-64
2023/06/29 10:25:59;;;;;;;4.38;2.38;;;25.90;87.80;;;;;;4965340;28;20030;-64
2023/06/29 10:28:25;;;;;;;5.57;2.58;;;26.00;85.50;;;;;;4962640;28;20121;-67
2023/06/29 10:30:57;;;;;;;5.90;2.50;;;26.20;86.70;;;;;;4963180;28;20027;-65
2023/06/29 10:33:23;;;;;;;2.05;1.70;;;26.50;83.80;;;;;;4962242;28;20044;-66
2023/06/29 10:35:57;;;;;;;3.45;1.75;;;26.60;83.60;;;;;;4960087;28;20062;-65
2023/06/29 10:38:34;;;;;;;3.97;1.83;;;26.60;82.00;;;;;;4955584;28;20361;-66
2023/06/29 10:41:00;;;;;;;3.65;2.15;;;26.60;83.80;;;;;;4964461;28;20038;-64
2023/06/29 10:43:26;;;;;;;3.53;1.92;;;26.60;83.50;;;;;;4964790;28;20038;-64
2023/06/29 10:45:52;;;;;;;2.03;1.83;;;26.60;81.60;;;;;;4964102;28;20062;-67
2023/06/29 10:48:20;;;;;;;5.35;2.03;;;26.60;81.90;;;;;;4961790;28;20118;-66
2023/06/29 10:50:50;;;;;;;4.05;1.92;;;26.70;80.30;;;;;;4961372;28;20042;-64
2023/06/29 10:53:17;;;;;;;2.22;1.80;;;26.60;79.70;;;;;;4958686;28;20834;-64
2023/06/29 10:55:52;;;;;;;1.88;1.50;;;26.60;80.50;;;;;;4959088;28;20125;-67
2023/06/29 10:58:19;;;;;;;2.43;1.80;;;26.60;81.10;;;;;;4962777;28;20042;-64
2023/06/29 11:00:45;;;;;;;2.05;1.52;;;26.60;79.60;;;;;;4964932;28;20376;-64
2023/06/29 11:03:12;;;;;;;2.13;1.77;;;26.80;81.40;;;;;;4963761;28;20027;-65
2023/06/29 11:05:38;;;;;;;1.98;1.77;;;27.00;80.80;;;;;;4956810;28;20039;-67
2023/06/29 11:08:07;;;;;;;5.43;2.00;;;27.00;78.80;;;;;;4956935;28;20034;-65
2023/06/29 11:10:33;;;;;;;4.22;2.10;;;26.90;76.50;;;;;;4940944;28;20035;-65
2023/06/29 11:13:00;;;;;;;2.05;1.70;;;26.70;76.70;;;;;;4962490;28;20078;-67
2023/06/29 11:15:27;;;;;;;2.97;1.75;;;26.40;79.30;;;;;;4955411;28;20039;-68
2023/06/29 11:17:53;;;;;;;3.35;2.03;;;26.50;79.20;;;;;;4965322;28;20050;-67
2023/06/29 11:20:22;;;;;;;5.47;1.92;;;26.30;78.50;;;;;;4961692;28;20038;-65
2023/06/29 11:22:48;;;;;;;2.90;1.92;;;26.10;80.40;;;;;;4962887;28;20037;-65
2023/06/29 11:25:15;;;;;;;3.78;2.10;;;26.00;78.50;;;;;;4964279;28;20038;-67
2023/06/29 11:27:43;;;;;;;2.75;2.20;;;25.90;77.40;;;;;;4960903;28;20114;-65
2023/06/29 11:30:10;;;;;;;3.10;2.05;;;25.90;79.50;;;;;;4961052;28;20499;-67
2023/06/29 11:32:37;;;;;;;3.35;2.10;;;25.90;79.70;;;;;;4956877;28;20839;-67
2023/06/29 11:35:05;;;;;;;5.35;2.30;;;26.00;80.00;;;;;;4961983;28;20125;-64
2023/06/29 11:37:32;;;;;;;3.13;1.85;;;26.10;81.10;;;;;;4962990;28;20054;-64
2023/06/29 11:39:58;;;;;;;5.18;2.10;;;26.00;81.00;;;;;;4962909;28;20038;-64
2023/06/29 11:42:25;;;;;;;4.45;1.77;;;26.20;82.60;;;;;;4960031;28;20038;-65
2023/06/29 11:45:05;;;;;;;2.92;1.70;;;26.30;79.40;;;;;;4960440;28;20042;-64
2023/06/29 11:47:31;;;;;;;4.90;1.80;;;26.40;79.70;;;;;;4957331;28;20067;-64
2023/06/29 11:49:59;;;;;;;2.30;1.80;;;26.50;80.50;;;;;;4957540;28;20577;-66
2023/06/29 11:52:29;;;;;;;3.97;2.00;;;26.60;79.80;;;;;;4961845;28;20122;-64
2023/06/29 11:54:54;;;;;;;1.65;1.50;;;26.50;78.00;;;;;;4963957;28;20127;-66
2023/06/29 11:57:20;;;;;;;3.75;1.98;;;26.40;79.00;;;;;;4962645;28;20110;-64
2023/06/29 11:59:46;;;;;;;5.00;1.75;;;26.40;80.40;;;;;;4960700;28;20038;-63
2023/06/29 12:02:14;;;;;;;4.43;2.05;;;26.50;79.80;;;;;;4959234;28;20035;-66
2023/06/29 12:05:03;;;;;;;4.38;1.83;;;26.60;78.60;;;;;;4958385;28;20485;-63
2023/06/29 12:07:44;;;;;;;3.10;1.80;;;26.70;80.50;;;;;;4954415;28;20135;-63
2023/06/29 12:10:18;;;;;;;5.88;2.03;;;26.80;78.40;;;;;;4956812;28;20926;-63
2023/06/29 12:12:48;;;;;;;2.10;1.77;;;26.70;76.20;;;;;;4963061;28;20038;-63
2023/06/29 12:15:25;;;;;;;3.03;1.85;;;26.50;77.60;;;;;;4959639;28;20085;-64
2023/06/29 12:17:53;;;;;;;3.22;1.77;;;26.50;77.40;;;;;;4959525;28;20053;-64
2023/06/29 12:20:24;;;;;;;2.30;1.83;;;26.50;75.90;;;;;;4959936;28;20184;-64
2023/06/29 12:22:55;;;;;;;3.25;1.70;;;26.50;75.90;;;;;;4940517;28;20031;-63
2023/06/29 12:25:22;;;;;;;6.05;1.70;;;26.40;75.90;;;;;;4954452;28;20563;-63
2023/06/29 12:27:49;;;;;;;5.13;1.83;;;26.40;75.80;;;;;;4958578;28;20031;-63
2023/06/29 12:30:20;;;;;;;2.25;1.63;;;26.30;75.10;;;;;;4959801;28;20031;-64
2023/06/29 12:32:48;;;;;;;4.22;2.20;;;26.30;74.90;;;;;;4962058;28;20042;-63
2023/06/29 12:35:15;;;;;;;5.97;2.00;;;26.40;76.90;;;;;;4946631;28;20034;-63
2023/06/29 12:37:41;;;;;;;5.43;1.67;;;26.40;76.60;;;;;;4958496;28;20079;-65
2023/06/29 12:40:08;;;;;;;3.28;2.30;;;26.40;75.60;;;;;;4957745;28;20899;-64
2023/06/29 12:42:34;;;;;;;5.40;1.80;;;26.40;76.40;;;;;;4956135;28;20051;-64
2023/06/29 12:45:01;;;;;;;2.40;1.90;;;26.40;76.00;;;;;;4960718;28;20473;-64